Time;durP1;ratioP1;P1;durP2;ratioP2;P2;SDS_P1;SDS_P2;PMS_P1;PMS_P2;Temp;Humidity;BMP_temperature;BMP_pressure;BME280_temperature;BME280_humidity;BME280_pressure;Samples;Min_cycle;Max_cycle;Signal;HPM_P1;HPM_P2
2022/06/13 00:01:11;;;;;;;9.98;4.28;;;;;;;25.15;54.19;100127.59;5094753;28;20135;-71
2022/06/13 00:03:39;;;;;;;9.23;4.00;;;;;;;25.31;54.22;100152.28;5094781;28;20051;-72
2022/06/13 00:06:06;;;;;;;8.77;4.85;;;;;;;25.27;54.49;100158.78;5078145;28;20079;-73
2022/06/13 00:08:33;;;;;;;6.72;3.78;;;;;;;25.27;54.39;100130.19;5074398;28;20136;-72
2022/06/13 00:11:00;;;;;;;6.65;3.65;;;;;;;25.47;54.20;100167.97;5074319;28;20087;-71
2022/06/13 00:13:27;;;;;;;8.23;4.63;;;;;;;25.39;54.60;100159.72;5073380;28;20144;-72
2022/06/13 00:15:54;;;;;;;5.07;3.75;;;;;;;25.21;54.21;100137.47;5074553;28;20114;-72
2022/06/13 00:18:21;;;;;;;7.55;3.40;;;;;;;25.42;54.16;100153.22;5074215;28;20048;-72
2022/06/13 00:20:48;;;;;;;8.88;4.22;;;;;;;25.38;54.24;100132.34;5072898;28;20131;-71
2022/06/13 00:23:15;;;;;;;10.02;4.43;;;;;;;25.43;53.87;100147.09;5074386;28;20582;-72
2022/06/13 00:25:42;;;;;;;11.70;4.78;;;;;;;25.45;54.45;100152.44;5074042;28;20139;-72
2022/06/13 00:28:08;;;;;;;15.48;5.65;;;;;;;25.20;54.67;100135.81;5083301;28;20101;-71
2022/06/13 00:30:36;;;;;;;13.85;4.95;;;;;;;25.19;54.59;100148.44;5093513;28;20127;-72
2022/06/13 00:33:03;;;;;;;15.20;4.53;;;;;;;25.13;54.61;100144.31;5094213;28;20087;-71
2022/06/13 00:35:30;;;;;;;12.45;5.20;;;;;;;24.97;54.72;100123.66;5094445;28;20415;-71
2022/06/13 00:37:57;;;;;;;12.57;4.05;;;;;;;25.05;54.99;100149.06;5094504;28;20147;-71
2022/06/13 00:40:23;;;;;;;12.73;5.35;;;;;;;25.02;54.91;100144.13;5073963;28;20080;-71
2022/06/13 00:42:50;;;;;;;13.43;4.65;;;;;;;24.82;54.71;100129.19;5073702;28;20080;-71
2022/06/13 00:45:24;;;;;;;13.90;4.88;;;;;;;24.87;54.95;100144.34;5073620;28;20095;-72
2022/06/13 00:47:53;;;;;;;13.95;4.90;;;;;;;24.91;55.21;100151.75;5074121;28;20135;-71
2022/06/13 00:50:28;;;;;;;;;;;;;;;24.69;54.78;100156.34;5073984;28;20514;-72
2022/06/13 00:53:09;;;;;;;14.20;5.40;;;;;;;24.65;55.33;100143.22;5073742;28;19927;-71
2022/06/13 00:55:49;;;;;;;15.95;5.15;;;;;;;24.56;55.21;100138.63;5077565;28;20044;-71
2022/06/13 00:58:17;;;;;;;13.10;4.97;;;;;;;24.52;55.70;100145.50;5093671;28;20090;-72
2022/06/13 01:00:50;;;;;;;15.80;5.20;;;;;;;24.48;55.67;100131.19;5093858;28;20072;-72
2022/06/13 01:03:17;;;;;;;15.48;4.30;;;;;;;24.49;55.79;100134.84;5094012;28;20051;-70
2022/06/13 01:05:49;;;;;;;14.50;4.72;;;;;;;24.38;56.02;100126.09;5093728;28;20131;-71
2022/06/13 01:08:17;;;;;;;21.08;4.47;;;;;;;24.42;56.23;100140.44;5093134;28;20072;-71
2022/06/13 01:13:54;;;;;;;15.60;5.15;;;;;;;24.33;56.03;100123.56;5093176;28;20304;-72
2022/06/13 01:16:40;;;;;;;11.45;4.93;;;;;;;24.38;55.88;100125.28;5091236;28;20134;-70
2022/06/13 01:19:19;;;;;;;15.63;5.05;;;;;;;24.34;55.96;100123.19;5073510;28;20098;-71
2022/06/13 01:22:14;;;;;;;17.10;5.45;;;;;;;24.31;56.07;100115.41;5075136;28;20049;-72
2022/06/13 01:24:47;;;;;;;15.88;6.22;;;;;;;24.34;56.75;100123.19;5092141;28;20447;-71
2022/06/13 01:27:38;;;;;;;15.95;4.88;;;;;;;24.29;56.37;100117.78;5093295;28;20087;-70
2022/06/13 01:30:23;;;;;;;15.98;5.40;;;;;;;24.32;56.81;100116.22;5084474;28;20088;-70
2022/06/13 01:32:53;;;;;;;8.60;4.20;;;;;;;24.22;56.59;100116.88;5073353;28;20133;-72
2022/06/13 01:35:38;;;;;;;16.85;5.13;;;;;;;24.17;56.85;100114.34;5073123;28;20144;-72
2022/06/13 01:38:20;;;;;;;10.80;4.15;;;;;;;24.20;56.57;100105.00;5073023;28;20079;-73
2022/06/13 01:41:19;;;;;;;19.77;4.88;;;;;;;24.18;56.43;100105.41;5072119;28;20076;-71
2022/06/13 01:44:19;;;;;;;12.93;4.68;;;;;;;24.16;56.84;100095.56;5066469;28;20091;-72
2022/06/13 01:47:01;;;;;;;7.63;4.00;;;;;;;24.18;56.82;100102.56;5075514;28;20123;-71
2022/06/13 01:49:47;;;;;;;16.52;4.95;;;;;;;24.19;57.27;100115.59;5092249;28;20466;-71
2022/06/13 01:52:28;;;;;;;9.85;4.43;;;;;;;24.21;57.08;100104.63;5093288;28;20083;-71
2022/06/13 01:55:24;;;;;;;13.02;4.82;;;;;;;24.22;57.09;100106.28;5091803;28;20131;-70
2022/06/13 01:58:11;;;;;;;12.27;4.65;;;;;;;23.99;57.10;100054.97;5021879;28;20072;-71
2022/06/13 02:00:39;;;;;;;14.15;4.88;;;;;;;24.36;57.38;100089.38;5092907;28;20087;-71
2022/06/13 02:03:19;;;;;;;9.82;4.45;;;;;;;24.41;56.62;100084.56;5092703;28;20044;-71
2022/06/13 02:05:46;;;;;;;11.55;4.45;;;;;;;24.52;56.77;100094.13;5072540;28;20084;-71
2022/06/13 02:08:21;;;;;;;13.15;5.35;;;;;;;24.61;56.73;100085.25;5088101;28;20139;-72
2022/06/13 02:11:04;;;;;;;11.43;4.35;;;;;;;24.71;56.85;100082.53;5072653;28;20098;-71
2022/06/13 02:13:39;;;;;;;11.90;4.35;;;;;;;24.67;56.54;100064.53;5072964;28;20127;-71
2022/06/13 02:16:10;;;;;;;11.63;4.10;;;;;;;24.70;56.52;100072.31;5072572;28;20099;-72
2022/06/13 02:18:48;;;;;;;13.57;5.32;;;;;;;24.74;56.53;100078.91;5072544;28;20086;-71
2022/06/13 02:21:16;;;;;;;12.50;4.47;;;;;;;24.71;56.85;100079.66;5082309;28;20154;-71
2022/06/13 02:23:50;;;;;;;8.98;4.47;;;;;;;24.76;56.58;100079.34;5091533;28;20134;-72
2022/06/13 02:26:22;;;;;;;8.02;4.10;;;;;;;24.74;56.72;100058.91;5092796;28;20131;-72
2022/06/13 02:29:00;;;;;;;12.13;5.07;;;;;;;24.96;56.48;100082.03;5091961;28;20138;-72
2022/06/13 02:31:39;;;;;;;6.95;4.15;;;;;;;24.79;56.61;100052.06;5091678;28;20131;-71
2022/06/13 02:34:25;;;;;;;9.48;4.82;;;;;;;24.67;56.04;100038.03;5091684;28;20056;-70
2022/06/13 02:37:13;;;;;;;11.07;4.68;;;;;;;24.74;56.57;100076.03;5094899;28;20542;-71
2022/06/13 02:39:52;;;;;;;11.13;5.03;;;;;;;24.62;56.85;100061.22;5076542;28;20125;-71
2022/06/13 02:42:42;;;;;;;14.65;4.68;;;;;;;24.60;56.77;100053.03;5076173;28;20044;-71
2022/06/13 02:45:16;;;;;;;9.93;4.82;;;;;;;24.53;57.34;100052.94;5076074;28;20044;-71
2022/06/13 02:47:53;;;;;;;10.60;4.53;;;;;;;24.51;56.83;100061.06;5076549;28;20086;-71
2022/06/13 02:50:30;;;;;;;11.35;4.80;;;;;;;24.32;57.26;100030.59;5078876;28;20094;-71
2022/06/13 02:53:26;;;;;;;10.57;5.00;;;;;;;24.34;57.27;100051.84;5079856;28;20053;-70
2022/06/13 02:56:04;;;;;;;16.60;6.13;;;;;;;24.31;57.19;100049.75;5086704;28;20135;-70
2022/06/13 02:59:08;;;;;;;12.43;5.53;;;;;;;24.33;57.36;100063.63;5079344;28;20152;-72
2022/06/13 03:01:41;;;;;;;14.43;5.25;;;;;;;24.33;57.57;100058.75;5079731;28;20080;-71
2022/06/13 03:04:27;;;;;;;11.00;5.35;;;;;;;24.32;57.73;100059.13;5079359;28;20102;-72
2022/06/13 03:07:19;;;;;;;14.98;4.95;;;;;;;24.27;57.46;100063.16;5079781;28;20048;-70
2022/06/13 03:10:09;;;;;;;14.43;5.63;;;;;;;24.17;57.82;100052.41;5078941;28;20083;-71
2022/06/13 03:12:56;;;;;;;24.17;6.35;;;;;;;24.11;57.76;100056.81;5076514;28;20143;-71
2022/06/13 03:15:44;;;;;;;20.10;7.75;;;;;;;24.04;58.02;100054.66;5075634;28;20138;-71
2022/06/13 03:18:20;;;;;;;13.35;5.85;;;;;;;23.95;57.97;100050.44;5075773;28;20044;-71
2022/06/13 03:21:00;;;;;;;16.05;6.22;;;;;;;23.86;58.07;100037.28;5075707;28;20090;-71
2022/06/13 03:23:55;;;;;;;16.25;6.63;;;;;;;23.87;58.23;100038.91;5075590;28;20087;-70
2022/06/13 03:26:42;;;;;;;14.10;5.47;;;;;;;23.72;58.40;100025.63;5075276;28;20049;-71
2022/06/13 03:29:17;;;;;;;12.73;5.20;;;;;;;23.75;58.40;100026.91;5075992;28;20566;-70
2022/06/13 03:31:51;;;;;;;17.83;5.43;;;;;;;23.73;58.44;100033.00;5073986;28;20131;-70
2022/06/13 03:34:24;;;;;;;20.15;5.68;;;;;;;23.76;58.68;100043.63;5075558;28;20124;-71
2022/06/13 03:36:59;;;;;;;12.40;5.78;;;;;;;23.36;58.58;99970.06;5075163;28;20135;-71
2022/06/13 03:39:51;;;;;;;15.73;5.63;;;;;;;23.74;58.93;100040.34;5075398;28;20076;-71
2022/06/13 03:42:41;;;;;;;26.75;5.50;;;;;;;23.69;58.93;100043.50;5066697;28;20083;-70
2022/06/13 03:45:11;;;;;;;;;;;;;;;23.56;58.90;100042.03;5075819;28;20045;-71
2022/06/13 03:47:44;;;;;;;14.02;5.60;;;;;;;23.57;58.81;100044.50;5081802;28;20003;-71
2022/06/13 03:50:18;;;;;;;11.63;5.22;;;;;;;23.58;58.87;100056.72;5074791;28;20548;-71
2022/06/13 03:52:52;;;;;;;18.38;5.05;;;;;;;23.45;59.26;100026.75;5074801;28;20091;-70
2022/06/13 03:55:42;;;;;;;13.50;5.40;;;;;;;23.35;58.77;100022.53;5074906;28;20533;-71
2022/06/13 03:58:16;;;;;;;13.07;4.90;;;;;;;23.46;59.30;100039.84;5074626;28;20484;-71
2022/06/13 04:01:17;;;;;;;13.98;4.80;;;;;;;23.47;59.45;100052.88;5075197;28;20091;-71
2022/06/13 04:03:44;;;;;;;16.50;6.03;;;;;;;23.42;59.64;100048.31;5078160;28;20496;-71
2022/06/13 04:06:33;;;;;;;13.70;5.28;;;;;;;23.44;59.47;100059.31;5074553;28;20131;-71
2022/06/13 04:09:03;;;;;;;12.45;5.18;;;;;;;23.45;59.45;100058.09;5074859;28;20044;-71
2022/06/13 04:11:53;;;;;;;11.40;5.82;;;;;;;23.41;59.59;100060.91;5094897;28;20088;-71
2022/06/13 04:14:24;;;;;;;12.02;5.38;;;;;;;23.42;59.75;100069.09;5094590;28;20048;-72
2022/06/13 04:17:00;;;;;;;16.05;5.15;;;;;;;23.36;59.61;100059.19;5093655;28;20083;-71
2022/06/13 04:19:55;;;;;;;13.75;4.78;;;;;;;23.28;59.54;100060.28;5093634;28;20080;-71
2022/06/13 04:22:45;;;;;;;13.93;5.95;;;;;;;23.24;59.48;100053.66;5094237;28;20087;-71
2022/06/13 04:25:29;;;;;;;15.68;5.07;;;;;;;23.30;59.90;100080.66;5094977;28;20047;-70
2022/06/13 04:28:24;;;;;;;15.63;6.40;;;;;;;23.25;59.61;100072.44;5094363;28;20102;-71
2022/06/13 04:30:54;;;;;;;18.30;5.82;;;;;;;23.14;59.81;100057.13;5094359;28;20130;-71
2022/06/13 04:33:36;;;;;;;17.08;6.07;;;;;;;23.19;59.77;100079.63;5094258;28;20056;-71
2022/06/13 04:36:06;;;;;;;13.85;6.60;;;;;;;23.22;60.25;100075.22;5093253;28;20147;-72
2022/06/13 04:38:33;;;;;;;;;;;;;;;23.09;60.01;100083.09;5075119;28;20123;-71
2022/06/13 04:41:04;;;;;;;12.75;5.55;;;;;;;23.09;60.27;100069.69;5072577;28;20387;-71
2022/06/13 04:43:38;;;;;;;17.55;6.97;;;;;;;23.05;60.02;100068.78;5072980;28;20128;-70
2022/06/13 04:46:27;;;;;;;18.77;5.72;;;;;;;22.96;60.79;100068.19;5073720;28;20051;-70
2022/06/13 04:48:58;;;;;;;20.55;6.22;;;;;;;22.94;60.63;100071.44;5066999;28;20388;-71
2022/06/13 04:51:36;;;;;;;10.55;5.20;;;;;;;22.89;60.52;100071.69;5072551;28;20131;-71
2022/06/13 04:54:36;;;;;;;17.20;5.55;;;;;;;22.85;60.51;100056.56;5074519;28;20080;-70
2022/06/13 04:57:04;;;;;;;15.00;6.38;;;;;;;22.86;61.01;100061.03;5072336;28;20135;-71
2022/06/13 04:59:32;;;;;;;16.77;6.07;;;;;;;22.88;60.90;100067.19;5072618;28;20558;-71
2022/06/13 05:02:02;;;;;;;16.58;6.75;;;;;;;22.98;61.01;100070.69;5072274;28;20140;-71
2022/06/13 05:04:32;;;;;;;26.38;7.70;;;;;;;22.81;60.65;100054.84;5073313;28;20082;-71
2022/06/13 05:07:25;;;;;;;19.50;7.53;;;;;;;22.88;60.63;100072.91;5073347;28;20080;-70
2022/06/13 05:09:57;;;;;;;15.43;6.75;;;;;;;22.98;60.34;100079.22;5069670;28;20123;-71
2022/06/13 05:12:32;;;;;;;27.00;7.05;;;;;;;23.01;60.46;100076.44;5091841;28;20098;-71
2022/06/13 05:15:07;;;;;;;19.13;7.53;;;;;;;23.02;60.33;100083.78;5092644;28;20123;-71
2022/06/13 05:17:56;;;;;;;18.55;6.28;;;;;;;23.00;60.66;100082.50;5093794;28;20139;-72
2022/06/13 05:20:32;;;;;;;19.23;6.87;;;;;;;23.04;60.46;100091.94;5093356;28;20044;-71
2022/06/13 05:23:26;;;;;;;28.45;6.68;;;;;;;22.91;60.70;100075.00;5093370;28;20160;-71
2022/06/13 05:25:58;;;;;;;17.08;6.53;;;;;;;22.99;60.56;100086.56;5094044;28;20075;-71
2022/06/13 05:28:29;;;;;;;22.13;6.75;;;;;;;22.58;60.75;100020.63;5080857;28;20048;-71
2022/06/13 05:30:59;;;;;;;25.92;8.05;;;;;;;23.00;60.98;100086.16;5073175;28;20045;-71
2022/06/13 05:33:37;;;;;;;16.27;6.28;;;;;;;23.01;60.69;100092.69;5071775;28;20048;-71
2022/06/13 05:36:06;;;;;;;20.08;6.45;;;;;;;23.07;60.92;100100.53;5073414;28;20214;-71
2022/06/13 05:38:41;;;;;;;31.63;12.05;;;;;;;23.03;61.04;100090.28;5072956;28;20044;-71
2022/06/13 05:41:09;;;;;;;25.92;9.73;;;;;;;23.09;61.15;100080.25;5072972;28;20053;-71
2022/06/13 05:43:36;;;;;;;23.30;8.85;;;;;;;23.10;60.81;100084.72;5072911;28;20086;-72
2022/06/13 05:46:05;;;;;;;22.67;9.73;;;;;;;23.31;60.71;100090.00;5072039;28;20127;-71
2022/06/13 05:48:32;;;;;;;20.80;6.93;;;;;;;23.22;60.65;100081.72;5072962;28;20044;-72
2022/06/13 05:50:59;;;;;;;18.25;6.32;;;;;;;23.48;60.91;100105.81;5073233;28;20475;-72
2022/06/13 05:53:27;;;;;;;17.75;6.50;;;;;;;23.54;60.68;100098.59;5072797;28;20131;-72
2022/06/13 05:55:57;;;;;;;13.55;6.13;;;;;;;23.61;60.73;100098.72;5072619;28;20136;-71
2022/06/13 05:58:25;;;;;;;20.55;7.82;;;;;;;23.73;60.71;100100.59;5071448;28;20088;-71
2022/06/13 06:00:55;;;;;;;18.90;8.05;;;;;;;23.80;60.30;100095.84;5071334;28;20131;-71
2022/06/13 06:03:22;;;;;;;14.85;6.32;;;;;;;23.94;60.65;100098.09;5073046;28;20094;-71
2022/06/13 06:05:49;;;;;;;13.40;5.82;;;;;;;24.13;60.12;100114.28;5071540;28;20091;-72
2022/06/13 06:08:19;;;;;;;19.27;7.00;;;;;;;24.24;60.13;100109.59;5071746;28;20076;-71
2022/06/13 06:10:48;;;;;;;16.60;7.90;;;;;;;24.23;59.72;100093.66;5074904;28;20044;-72
2022/06/13 06:13:16;;;;;;;17.63;6.15;;;;;;;24.44;59.92;100124.56;5076656;28;20097;-72
2022/06/13 06:15:44;;;;;;;17.77;7.00;;;;;;;24.42;59.32;100109.06;5076569;28;20531;-71
2022/06/13 06:18:13;;;;;;;17.05;6.72;;;;;;;24.65;59.27;100121.22;5077104;28;20048;-71
2022/06/13 06:20:40;;;;;;;20.73;7.57;;;;;;;24.51;59.34;100089.59;5097029;28;20131;-71
2022/06/13 06:23:08;;;;;;;19.38;8.40;;;;;;;24.96;58.37;100128.56;5095937;28;20127;-72
2022/06/13 06:25:36;;;;;;;16.38;7.05;;;;;;;25.14;58.41;100143.09;5097163;28;20387;-72
2022/06/13 06:28:04;;;;;;;10.60;5.50;;;;;;;25.33;57.42;100138.41;5096813;28;20083;-70
2022/06/13 06:30:32;;;;;;;8.70;3.88;;;;;;;25.37;57.27;100136.41;5096747;28;20048;-71
2022/06/13 06:32:59;;;;;;;9.85;4.75;;;;;;;25.50;56.65;100134.91;5096469;28;20102;-71
2022/06/13 06:35:28;;;;;;;14.55;5.15;;;;;;;25.74;56.30;100134.38;5096652;28;20083;-70
2022/06/13 06:37:55;;;;;;;23.77;8.93;;;;;;;25.89;56.32;100143.09;5096459;28;20087;-70
2022/06/13 06:40:25;;;;;;;12.13;4.55;;;;;;;25.87;56.08;100134.09;5096634;28;20076;-72
2022/06/13 06:42:52;;;;;;;12.30;4.70;;;;;;;26.00;55.67;100159.13;5096718;28;20083;-71
2022/06/13 06:45:23;;;;;;;12.18;4.47;;;;;;;26.11;55.51;100156.38;5096511;28;20521;-70
2022/06/13 06:47:51;;;;;;;16.20;4.05;;;;;;;26.32;55.14;100170.03;5096429;28;20457;-71
2022/06/13 06:50:22;;;;;;;14.57;5.18;;;;;;;26.43;54.68;100158.66;5096166;28;20589;-70
2022/06/13 06:52:49;;;;;;;11.60;4.50;;;;;;;26.34;54.52;100141.81;5095635;28;20125;-71
2022/06/13 07:00:57;;;;;;;17.15;4.50;;;;;;;26.95;53.33;100179.47;5095913;28;20083;-72
2022/06/13 07:03:24;;;;;;;13.63;5.22;;;;;;;27.14;53.01;100189.81;5076758;28;20127;-71
2022/06/13 07:05:51;;;;;;;10.30;4.28;;;;;;;27.23;52.53;100160.78;5082332;28;20055;-71
2022/06/13 07:08:18;;;;;;;15.95;4.05;;;;;;;27.50;52.11;100182.19;5094699;28;20055;-70
2022/06/13 07:10:47;;;;;;;9.45;4.13;;;;;;;27.48;52.21;100184.63;5093874;28;20565;-71
2022/06/13 07:13:17;;;;;;;11.52;4.70;;;;;;;27.43;51.80;100182.16;5096083;28;20482;-71
2022/06/13 07:15:48;;;;;;;12.63;4.93;;;;;;;27.53;51.60;100187.13;5096072;28;20480;-71
2022/06/13 07:18:16;;;;;;;8.75;3.67;;;;;;;27.58;51.82;100183.84;5094804;28;20079;-71
2022/06/13 07:20:44;;;;;;;12.55;4.43;;;;;;;27.60;51.31;100187.13;5094377;28;20101;-71
2022/06/13 07:23:11;;;;;;;12.23;4.03;;;;;;;27.65;50.99;100178.13;5094859;28;20043;-71
2022/06/13 07:25:38;;;;;;;14.52;4.18;;;;;;;27.85;51.37;100190.06;5095539;28;20048;-71
2022/06/13 07:28:04;;;;;;;8.23;3.95;;;;;;;27.86;50.76;100182.28;5079411;28;20095;-72
2022/06/13 07:30:32;;;;;;;8.75;3.40;;;;;;;28.02;50.49;100185.59;5075638;28;20127;-71
2022/06/13 07:32:59;;;;;;;8.10;3.72;;;;;;;28.08;49.87;100161.00;5075346;28;20131;-71
2022/06/13 07:35:26;;;;;;;15.10;4.40;;;;;;;28.16;49.69;100181.91;5073985;28;20558;-71
2022/06/13 07:40:39;;;;;;;8.43;4.18;;;;;;;28.24;49.13;100188.47;5075161;28;20044;-71
2022/06/13 07:43:09;;;;;;;17.83;4.45;;;;;;;28.43;49.58;100193.84;5075050;28;20563;-70
2022/06/13 07:45:40;;;;;;;10.77;3.47;;;;;;;28.74;48.78;100191.34;5094797;28;20163;-71
2022/06/13 07:48:22;;;;;;;12.98;3.90;;;;;;;28.70;48.90;100204.88;5095059;28;20044;-71
2022/06/13 07:50:49;;;;;;;18.45;5.53;;;;;;;28.52;49.07;100207.78;5095237;28;20135;-71
2022/06/13 07:53:16;;;;;;;14.70;4.32;;;;;;;28.62;49.15;100204.09;5094948;28;20079;-71
2022/06/13 07:56:04;;;;;;;9.68;4.15;;;;;;;28.73;49.21;100206.94;5086571;28;20403;-70
2022/06/13 07:58:36;;;;;;;15.10;4.68;;;;;;;28.62;48.49;100183.16;5074587;28;20052;-70
2022/06/13 08:01:04;;;;;;;8.82;4.32;;;;;;;28.76;48.63;100189.69;5081626;28;20080;-71
2022/06/13 08:03:33;;;;;;;9.18;4.05;;;;;;;28.79;48.35;100190.94;5074968;28;20048;-72
2022/06/13 08:06:00;;;;;;;8.85;3.88;;;;;;;28.80;48.57;100199.13;5075520;28;20444;-72
2022/06/13 08:08:27;;;;;;;16.35;4.93;;;;;;;28.90;48.23;100190.91;5074785;28;20076;-70
2022/06/13 08:10:57;;;;;;;10.70;4.25;;;;;;;29.12;48.03;100200.28;5074493;28;20136;-72
2022/06/13 08:13:25;;;;;;;9.80;4.03;;;;;;;29.51;47.88;100203.84;5074403;28;20053;-71
2022/06/13 08:15:53;;;;;;;11.57;4.90;;;;;;;29.73;47.79;100209.50;5074501;28;20048;-70
2022/06/13 08:18:20;;;;;;;15.43;4.68;;;;;;;29.65;47.19;100205.03;5075189;28;20127;-70
2022/06/13 08:20:49;;;;;;;11.00;5.82;;;;;;;29.60;47.41;100211.22;5074143;28;20049;-71
2022/06/13 08:23:19;;;;;;;15.93;5.13;;;;;;;29.55;47.11;100205.88;5073401;28;20457;-71
2022/06/13 08:25:48;;;;;;;11.13;5.28;;;;;;;29.69;47.29;100200.06;5074231;28;20586;-71
2022/06/13 08:28:15;;;;;;;10.68;5.80;;;;;;;29.70;47.16;100196.75;5074335;28;20135;-71
2022/06/13 08:30:50;;;;;;;12.60;5.47;;;;;;;30.09;46.99;100207.22;5074047;28;20048;-71
2022/06/13 08:33:18;;;;;;;7.57;4.30;;;;;;;30.37;46.43;100208.25;5073497;28;20126;-71
2022/06/13 08:35:45;;;;;;;11.63;4.63;;;;;;;30.39;46.05;100215.25;5074568;28;20084;-71
2022/06/13 08:38:13;;;;;;;14.95;5.68;;;;;;;30.17;46.64;100210.84;5073090;28;20128;-70
2022/06/13 08:41:05;;;;;;;9.95;4.30;;;;;;;29.95;46.80;100205.25;5074093;28;20118;-71
2022/06/13 08:43:58;;;;;;;15.88;4.85;;;;;;;30.02;46.93;100212.19;5072624;28;20095;-71
2022/06/13 08:46:32;;;;;;;9.18;4.90;;;;;;;29.92;46.44;100203.22;5058408;28;20056;-72
2022/06/13 08:49:09;;;;;;;11.18;4.90;;;;;;;29.72;46.88;100170.44;5073737;28;20088;-71
2022/06/13 08:51:46;;;;;;;11.85;4.75;;;;;;;30.07;46.37;100194.47;5074460;28;20158;-71
2022/06/13 08:54:21;;;;;;;13.93;4.95;;;;;;;30.42;46.29;100207.78;5073583;28;20048;-71
2022/06/13 08:56:51;;;;;;;9.45;4.65;;;;;;;30.63;46.09;100195.25;5072345;28;20127;-71
2022/06/13 08:59:34;;;;;;;9.60;4.90;;;;;;;30.82;45.82;100190.97;5072098;28;20060;-71
2022/06/13 09:02:05;;;;;;;7.25;4.65;;;;;;;30.95;45.25;100179.72;5073429;28;20080;-71
2022/06/13 09:04:40;;;;;;;11.45;4.80;;;;;;;31.43;45.44;100190.28;5073869;28;20076;-71
2022/06/13 09:07:15;;;;;;;10.32;4.88;;;;;;;31.84;45.19;100182.25;5073392;28;20135;-72
2022/06/13 09:10:00;;;;;;;13.93;4.53;;;;;;;32.00;44.29;100178.75;5073748;28;20102;-71
2022/06/13 09:12:48;;;;;;;9.32;5.72;;;;;;;32.10;44.10;100182.69;5072628;28;20076;-71
2022/06/13 09:15:25;;;;;;;11.20;5.13;;;;;;;32.15;44.24;100185.13;5073515;28;20079;-72
2022/06/13 09:18:09;;;;;;;13.10;6.15;;;;;;;32.40;43.79;100189.66;5073575;28;20083;-71
2022/06/13 09:21:16;;;;;;;14.02;5.28;;;;;;;32.61;43.84;100160.38;5073120;28;20092;-71
2022/06/13 09:24:05;;;;;;;19.80;4.97;;;;;;;32.93;43.04;100171.34;5052765;28;20139;-71
2022/06/13 09:26:42;;;;;;;11.80;5.55;;;;;;;32.75;42.51;100145.69;5074084;28;20048;-71
2022/06/13 09:29:25;;;;;;;7.10;4.75;;;;;;;32.49;42.27;100153.19;5073305;28;20048;-71
2022/06/13 09:32:08;;;;;;;5.80;3.33;;;;;;;32.52;42.58;100145.72;5073132;28;20550;-71
2022/06/13 09:34:59;;;;;;;11.13;4.38;;;;;;;32.72;42.27;100154.38;5072831;28;20059;-71
2022/06/13 09:38:13;;;;;;;6.50;4.15;;;;;;;32.67;41.86;100149.13;5073019;28;20088;-71
2022/06/13 09:41:04;;;;;;;5.63;4.50;;;;;;;32.88;41.69;100157.38;5058780;28;20495;-72
2022/06/13 09:43:59;;;;;;;7.53;4.57;;;;;;;32.80;41.76;100138.56;5065693;28;20044;-72
2022/06/13 09:47:13;;;;;;;8.88;4.63;;;;;;;32.61;41.51;100148.81;5071524;28;20049;-70
2022/06/13 09:50:07;;;;;;;10.02;4.13;;;;;;;32.64;41.33;100142.16;5068684;28;20088;-72
2022/06/13 09:52:49;;;;;;;6.28;4.30;;;;;;;32.86;41.06;100153.31;5072861;28;20507;-72
2022/06/13 09:55:30;;;;;;;8.00;3.90;;;;;;;32.96;39.92;100164.72;5073110;28;20521;-71
2022/06/13 09:58:03;;;;;;;7.75;3.67;;;;;;;32.94;39.84;100164.28;5071439;28;20110;-71
2022/06/13 10:00:49;;;;;;;11.40;5.18;;;;;;;32.91;39.36;100147.00;5072933;28;20136;-71
2022/06/13 10:03:32;;;;;;;12.68;3.72;;;;;;;32.92;38.68;100155.22;5073105;28;20480;-71
2022/06/13 10:05:59;;;;;;;5.65;3.42;;;;;;;33.03;38.58;100149.28;5072503;28;20135;-72
2022/06/13 10:08:54;;;;;;;8.70;4.25;;;;;;;33.01;38.95;100143.13;5072582;28;20084;-72
2022/06/13 10:11:31;;;;;;;5.47;3.78;;;;;;;33.11;38.80;100132.59;5071450;28;20582;-71
2022/06/13 10:14:20;;;;;;;10.55;4.32;;;;;;;33.00;38.55;100138.59;5072642;28;20140;-71
2022/06/13 10:16:57;;;;;;;8.65;3.20;;;;;;;32.96;38.28;100135.78;5077878;28;20078;-71
2022/06/13 10:19:53;;;;;;;6.00;3.50;;;;;;;33.12;37.54;100137.91;5092737;28;20052;-72
2022/06/13 10:22:37;;;;;;;6.60;3.47;;;;;;;33.28;37.89;100113.22;5092856;28;20529;-71
2022/06/13 10:25:13;;;;;;;10.18;3.47;;;;;;;33.74;36.82;100146.91;5091844;28;20119;-72
2022/06/13 10:27:43;;;;;;;7.30;2.55;;;;;;;33.99;35.04;100131.81;5093078;28;20051;-72
2022/06/13 10:30:35;;;;;;;4.40;2.45;;;;;;;34.11;34.52;100153.47;5092924;28;20140;-73
2022/06/13 10:33:10;;;;;;;8.73;2.42;;;;;;;34.03;34.78;100143.34;5092796;28;20082;-73
2022/06/13 10:35:52;;;;;;;7.63;2.85;;;;;;;34.26;33.48;100151.03;5072394;28;20083;-72
2022/06/13 10:38:31;;;;;;;6.43;1.70;;;;;;;34.33;32.74;100147.97;5072957;28;20079;-72
2022/06/13 10:40:58;;;;;;;;;;;;;;;34.28;33.67;100134.00;5073352;28;20068;-71
2022/06/13 10:43:25;;;;;;;6.78;2.55;;;;;;;34.55;32.68;100143.25;5072759;28;19920;-72
2022/06/13 10:45:52;;;;;;;6.82;2.55;;;;;;;34.58;32.29;100138.63;5073139;28;20083;-75
2022/06/13 10:48:26;;;;;;;10.88;2.53;;;;;;;34.79;31.28;100135.13;5072573;28;20044;-72
2022/06/13 10:50:59;;;;;;;6.22;2.33;;;;;;;34.96;31.77;100123.47;5077990;28;20052;-72
2022/06/13 10:53:38;;;;;;;5.88;2.42;;;;;;;35.00;31.25;100130.78;5092965;28;20090;-71
2022/06/13 10:56:10;;;;;;;4.57;2.28;;;;;;;35.29;30.52;100133.69;5092751;28;20134;-74
2022/06/13 10:58:48;;;;;;;6.75;1.90;;;;;;;35.24;30.39;100133.44;5097410;28;20563;-72
2022/06/13 11:01:19;;;;;;;5.15;2.08;;;;;;;35.17;29.38;100127.84;5095874;28;20044;-72
2022/06/13 11:04:06;;;;;;;8.82;2.15;;;;;;;35.03;29.87;100123.28;5078920;28;20430;-72
2022/06/13 11:06:46;;;;;;;3.45;2.13;;;;;;;35.12;30.62;100126.34;5079652;28;20080;-72
2022/06/13 11:09:31;;;;;;;9.48;2.35;;;;;;;35.21;29.90;100116.94;5079506;28;20463;-71
2022/06/13 11:12:05;;;;;;;6.10;2.25;;;;;;;35.25;29.65;100114.75;5079929;28;20478;-70
2022/06/13 11:14:34;;;;;;;4.95;2.40;;;;;;;35.17;29.24;100125.75;5079417;28;20076;-71
2022/06/13 11:22:39;;;;;;;11.85;2.58;;;;;;;35.25;27.83;100123.44;5075884;28;20079;-71
2022/06/13 11:25:24;;;;;;;;;;;;;;;35.06;29.67;100119.47;5076974;28;20080;-71
2022/06/13 11:28:08;;;;;;;5.90;2.40;;;;;;;35.36;29.95;100123.97;5075895;28;20295;-72
2022/06/13 11:30:40;;;;;;;6.45;1.95;;;;;;;35.13;29.31;100137.47;5075590;28;20055;-72
2022/06/13 11:33:11;;;;;;;3.75;1.85;;;;;;;35.14;29.01;100147.81;5075663;28;20049;-72
2022/06/13 11:35:44;;;;;;;5.22;2.13;;;;;;;35.31;28.30;100119.50;5074926;28;20079;-72
2022/06/13 11:38:19;;;;;;;5.88;2.10;;;;;;;35.23;28.08;100120.22;5075846;28;20420;-71
2022/06/13 11:41:18;;;;;;;4.13;2.10;;;;;;;35.25;28.33;100117.66;5076659;28;20076;-72
2022/06/13 11:43:45;;;;;;;4.47;2.40;;;;;;;35.43;28.16;100120.81;5074716;28;20064;-72
2022/06/13 11:46:37;;;;;;;10.23;2.58;;;;;;;35.44;28.65;100107.13;5075664;28;20117;-71
2022/06/13 11:49:15;;;;;;;5.25;1.70;;;;;;;35.51;28.29;100104.81;5070941;28;20495;-71
2022/06/13 11:51:51;;;;;;;5.03;2.00;;;;;;;35.69;28.32;100097.63;5074710;28;20083;-71
2022/06/13 11:54:36;;;;;;;5.60;2.35;;;;;;;35.80;28.60;100098.91;5075583;28;20064;-72
2022/06/13 11:57:18;;;;;;;6.50;2.00;;;;;;;35.97;27.78;100111.22;5074973;28;20076;-72
2022/06/13 11:59:52;;;;;;;5.15;1.80;;;;;;;35.92;27.55;100088.53;5081980;28;20088;-72
2022/06/13 12:02:43;;;;;;;8.82;2.35;;;;;;;36.12;26.83;100091.22;5099378;28;20064;-71
2022/06/13 12:05:20;;;;;;;7.38;1.85;;;;;;;36.38;26.27;100099.88;5116124;28;20040;-72
2022/06/13 12:07:54;;;;;;;5.43;1.50;;;;;;;36.54;25.54;100097.63;5120153;28;20036;-71
2022/06/13 12:10:25;;;;;;;4.22;2.10;;;;;;;36.66;25.13;100066.06;5119545;28;20031;-71
2022/06/13 12:12:52;;;;;;;6.65;1.92;;;;;;;37.36;24.35;100087.91;5119047;28;20040;-72
2022/06/13 12:15:22;;;;;;;3.85;2.17;;;;;;;37.82;23.75;100076.50;5117693;28;20055;-71
2022/06/13 12:18:00;;;;;;;7.38;1.92;;;;;;;38.59;23.84;100085.25;5119043;28;20048;-71
2022/06/13 12:20:30;;;;;;;5.40;2.03;;;;;;;39.47;22.99;100099.13;5118254;28;20097;-71